createdAt,value
2022-08-30T00:03:02.217Z,95950.20
2022-08-30T00:08:33.429Z,95944.55
2022-08-30T00:11:27.093Z,95949.06
2022-08-30T00:14:15.271Z,95956.05
2022-08-30T00:17:07.360Z,95954.21
2022-08-30T00:19:58.509Z,95953.05
2022-08-30T00:25:37.110Z,95948.00
2022-08-30T00:28:26.213Z,95949.78
2022-08-30T00:34:04.074Z,95942.44
2022-08-30T00:39:35.882Z,95937.39
2022-08-30T00:45:08.835Z,95933.71
2022-08-30T00:48:01.036Z,95943.50
2022-08-30T00:53:35.271Z,95938.36
2022-08-30T00:56:25.142Z,95937.52
2022-08-30T00:59:14.592Z,95941.81
2022-08-30T01:02:03.966Z,95943.98
2022-08-30T01:04:53.434Z,95941.49
2022-08-30T01:10:30.462Z,95934.12
2022-08-30T01:16:02.483Z,95934.67
2022-08-30T01:22:03.138Z,95937.28
2022-08-30T01:27:36.080Z,95945.86
2022-08-30T01:30:25.067Z,95955.03
2022-08-30T01:36:07.235Z,95946.01
2022-08-30T01:38:57.401Z,95945.73
2022-08-30T01:41:46.631Z,95948.83
2022-08-30T01:47:22.972Z,95952.05
2022-08-30T01:50:13.918Z,95954.28
2022-08-30T01:53:03.911Z,95958.48
2022-08-30T01:58:43.812Z,95948.85
2022-08-30T02:04:15.494Z,95948.58
2022-08-30T02:09:46.278Z,95950.66
2022-08-30T02:15:24.194Z,95954.15
2022-08-30T02:20:59.339Z,95949.22
2022-08-30T02:23:48.611Z,95951.33
2022-08-30T02:26:38.026Z,95945.94
2022-08-30T02:29:27.429Z,95946.97
2022-08-30T02:35:20.131Z,95940.77
2022-08-30T02:38:09.523Z,95935.55
2022-08-30T02:41:00.271Z,95938.27
2022-08-30T02:43:48.821Z,95937.41
2022-08-30T02:49:33.243Z,95933.91
2022-08-30T02:55:01.086Z,95934.74
2022-08-30T02:57:49.273Z,95924.56
2022-08-30T03:00:37.962Z,95925.30
2022-08-30T03:03:27.001Z,95922.64
2022-08-30T03:06:16.578Z,95921.52
2022-08-30T03:09:04.829Z,95918.10
2022-08-30T03:11:53.239Z,95910.56
2022-08-30T03:14:42.687Z,95905.77
2022-08-30T03:17:31.420Z,95910.91
2022-08-30T03:23:05.942Z,95902.86
2022-08-30T03:28:38.407Z,95905.87
2022-08-30T03:31:27.185Z,95910.91
2022-08-30T03:34:19.761Z,95899.13
2022-08-30T03:39:57.856Z,95899.27
2022-08-30T03:45:35.417Z,95893.28
2022-08-30T03:51:08.985Z,95902.14
2022-08-30T03:56:43.666Z,95907.84
2022-08-30T03:59:32.274Z,95903.69
2022-08-30T04:05:11.181Z,95905.63
2022-08-30T04:10:47.505Z,95912.25
2022-08-30T04:16:25.470Z,95912.11
2022-08-30T04:19:13.959Z,95917.73
2022-08-30T04:22:07.081Z,95913.12
2022-08-30T04:27:43.914Z,95917.39
2022-08-30T04:33:39.371Z,95912.92
2022-08-30T04:39:11.876Z,95913.44
2022-08-30T04:42:01.033Z,95914.95
2022-08-30T04:51:21.760Z,95933.70
2022-08-30T04:54:10.096Z,95941.16
2022-08-30T04:57:04.146Z,95942.43
2022-08-30T05:02:56.309Z,95952.92
2022-08-30T05:05:50.793Z,95950.89
2022-08-30T05:11:27.573Z,95964.62
2022-08-30T05:16:56.743Z,95976.89
2022-08-30T05:19:45.736Z,95982.80
2022-08-30T05:22:37.108Z,95980.77
2022-08-30T05:25:27.587Z,95991.78
2022-08-30T05:28:16.369Z,95991.50
2022-08-30T05:31:07.505Z,95984.45
2022-08-30T05:34:00.341Z,95987.53
2022-08-30T05:39:50.705Z,95987.75
2022-08-30T05:42:30.290Z,95987.08
2022-08-30T05:45:18.677Z,95996.73
2022-08-30T05:48:07.384Z,95998.20
2022-08-30T05:51:05.817Z,95997.42
2022-08-30T05:56:39.099Z,95980.88
2022-08-30T05:59:28.536Z,95978.75
2022-08-30T06:02:19.743Z,95982.13
2022-08-30T06:07:56.992Z,95969.78
2022-08-30T06:10:45.232Z,95976.70
2022-08-30T06:13:34.565Z,95975.95
2022-08-30T06:19:04.956Z,95969.05
2022-08-30T06:30:18.923Z,95977.94
2022-08-30T06:38:33.724Z,95981.26
2022-08-30T06:41:25.432Z,95980.62
2022-08-30T06:44:14.323Z,95981.41
2022-08-30T06:50:10.029Z,95969.58
2022-08-30T06:55:39.216Z,95967.05
2022-08-30T07:01:06.949Z,95967.31
2022-08-30T07:03:57.059Z,95960.97
2022-08-30T07:06:46.920Z,95969.29
2022-08-30T07:12:17.546Z,95965.38
2022-08-30T07:18:05.067Z,95958.08
2022-08-30T07:20:54.381Z,95967.42
2022-08-30T07:26:33.267Z,95957.27
2022-08-30T07:32:07.598Z,95954.26
2022-08-30T07:34:55.526Z,95949.95
2022-08-30T07:37:44.015Z,95949.39
2022-08-30T07:43:19.369Z,95940.39
2022-08-30T07:46:09.661Z,95941.23
2022-08-30T07:49:00.627Z,95947.57
2022-08-30T07:54:31.634Z,95940.28
2022-08-30T07:57:21.978Z,95941.59
2022-08-30T08:02:55.698Z,95940.45
2022-08-30T08:08:27.882Z,95946.02
2022-08-30T08:14:05.714Z,95950.61
2022-08-30T08:19:41.821Z,95950.39
2022-08-30T08:25:17.271Z,95949.99
2022-08-30T08:28:06.081Z,95955.41
2022-08-30T08:33:34.462Z,95950.03
2022-08-30T08:36:22.908Z,95953.44
2022-08-30T08:39:12.086Z,95954.93
2022-08-30T08:44:55.542Z,95949.38
2022-08-30T08:47:48.147Z,95949.52
2022-08-30T08:50:47.282Z,95946.11
2022-08-30T08:53:52.473Z,95934.59
2022-08-30T08:59:18.379Z,95931.40
2022-08-30T09:04:48.344Z,95935.78
2022-08-30T09:10:46.934Z,95945.05
2022-08-30T09:13:18.956Z,95945.45
2022-08-30T09:18:58.682Z,95952.34
2022-08-30T09:24:42.983Z,95942.20
2022-08-30T09:30:16.341Z,95942.84
2022-08-30T09:35:54.107Z,95943.64
2022-08-30T09:38:42.944Z,95936.97
2022-08-30T09:41:43.279Z,95932.86
2022-08-30T09:47:25.803Z,95928.68
2022-08-30T09:53:09.881Z,95917.20
2022-08-30T09:56:03.506Z,95926.59
2022-08-30T10:01:47.461Z,95931.16
2022-08-30T10:10:17.136Z,95930.15
2022-08-30T10:15:50.251Z,95916.73
2022-08-30T10:21:32.039Z,95916.47
2022-08-30T10:24:22.987Z,95913.63
2022-08-30T10:29:58.311Z,95904.14
2022-08-30T10:35:38.527Z,95903.42
2022-08-30T10:41:35.251Z,95914.19
2022-08-30T10:47:18.592Z,95902.38
2022-08-30T10:55:37.283Z,95891.47
2022-08-30T11:01:28.777Z,95897.22
2022-08-30T11:07:29.135Z,95898.27
2022-08-30T11:13:04.687Z,95898.19
2022-08-30T11:15:59.126Z,95894.90
2022-08-30T11:21:37.463Z,95894.48
2022-08-30T11:24:27.108Z,95884.27
2022-08-30T11:30:53.245Z,95888.50
2022-08-30T11:37:10.462Z,95884.50
2022-08-30T11:40:02.068Z,95887.78
2022-08-30T11:45:54.120Z,95878.84
2022-08-30T11:51:30.582Z,95876.40
2022-08-30T11:54:31.764Z,95875.35
2022-08-30T12:00:16.347Z,95870.88
2022-08-30T12:03:06.970Z,95876.94
2022-08-30T12:12:07.525Z,95857.13
2022-08-30T12:18:15.760Z,95848.24
2022-08-30T12:23:56.962Z,95844.34
2022-08-30T12:29:34.471Z,95831.81
2022-08-30T12:35:11.207Z,95818.59
2022-08-30T12:38:05.956Z,95818.56
2022-08-30T12:43:51.120Z,95817.37
2022-08-30T12:49:20.421Z,95810.89
2022-08-30T12:55:17.687Z,95804.05
2022-08-30T12:58:07.247Z,95804.98
2022-08-30T13:04:03.513Z,95798.53
2022-08-30T13:09:37.849Z,95803.94
2022-08-30T13:12:27.644Z,95798.30
2022-08-30T13:18:28.064Z,95792.22
2022-08-30T13:24:24.869Z,95777.38
2022-08-30T13:32:45.863Z,95765.80
2022-08-30T13:35:36.611Z,95757.57
2022-08-30T13:38:30.956Z,95750.68
2022-08-30T13:44:12.230Z,95740.36
2022-08-30T13:46:55.541Z,95741.66
2022-08-30T13:49:47.355Z,95736.98
2022-08-30T13:52:35.922Z,95731.33
2022-08-30T13:58:13.297Z,95724.60
2022-08-30T14:01:02.620Z,95730.48
2022-08-30T14:12:14.653Z,95723.59
2022-08-30T14:15:03.310Z,95731.73
2022-08-30T14:23:21.289Z,95724.13
2022-08-30T14:28:59.187Z,95721.27
2022-08-30T14:34:29.918Z,95725.52
2022-08-30T14:37:18.401Z,95723.56
2022-08-30T14:42:59.024Z,95708.64
2022-08-30T14:45:47.571Z,95709.91
2022-08-30T14:48:37.043Z,95713.69
2022-08-30T14:51:26.284Z,95703.19
2022-08-30T14:54:15.783Z,95712.69
2022-08-30T14:59:53.274Z,95699.02
2022-08-30T15:02:42.471Z,95707.95
2022-08-30T15:10:58.702Z,95684.50
2022-08-30T15:13:48.151Z,95685.39
2022-08-30T15:16:39.233Z,95684.34
2022-08-30T15:22:15.539Z,95687.22
2022-08-30T15:25:05.382Z,95693.20
2022-08-30T15:31:28.250Z,95682.52
2022-08-30T15:37:04.803Z,95671.11
2022-08-30T15:45:20.581Z,95669.08
2022-08-30T15:50:53.801Z,95669.98
2022-08-30T15:56:27.780Z,95661.48
2022-08-30T16:01:57.311Z,95657.24
2022-08-30T16:04:46.442Z,95648.20
2022-08-30T16:10:17.913Z,95648.93
2022-08-30T16:13:07.925Z,95654.67
2022-08-30T16:15:57.853Z,95657.13
2022-08-30T16:18:46.854Z,95663.11
2022-08-30T16:21:39.851Z,95668.45
2022-08-30T16:24:29.244Z,95681.17
2022-08-30T16:27:18.509Z,95674.19
2022-08-30T16:30:15.663Z,95690.92
2022-08-30T16:36:10.939Z,95678.05
2022-08-30T16:41:46.603Z,95675.09
2022-08-30T16:44:36.706Z,95677.86
2022-08-30T16:50:08.751Z,95675.05
2022-08-30T16:55:42.688Z,95678.56
2022-08-30T17:04:03.293Z,95676.17
2022-08-30T17:06:52.320Z,95682.20
2022-08-30T17:09:42.726Z,95689.95
2022-08-30T17:12:32.175Z,95690.16
2022-08-30T17:15:22.700Z,95702.74
2022-08-30T17:21:00.376Z,95705.11
2022-08-30T17:26:32.196Z,95712.93
2022-08-30T17:29:21.719Z,95716.56
2022-08-30T17:34:54.380Z,95733.83
2022-08-30T17:37:43.145Z,95727.98
2022-08-30T17:43:17.149Z,95735.72
2022-08-30T17:46:07.929Z,95739.35
2022-08-30T17:56:35.537Z,95792.80
2022-08-30T18:02:35.010Z,95828.42
2022-08-30T18:24:30.921Z,95836.47
2022-08-30T18:30:00.701Z,95833.89
2022-08-30T18:32:48.962Z,95838.67
2022-08-30T18:38:16.889Z,95843.37
2022-08-30T18:47:08.427Z,95849.72
2022-08-30T18:55:35.909Z,95847.66
2022-08-30T18:58:29.684Z,95856.20
2022-08-30T19:04:29.529Z,95870.45
2022-08-30T19:09:58.923Z,95882.48
2022-08-30T19:15:28.153Z,95882.12
2022-08-30T19:21:04.382Z,95867.61
2022-08-30T19:26:40.678Z,95866.39
2022-08-30T19:29:29.611Z,95866.80
2022-08-30T19:35:07.456Z,95890.25
2022-08-30T19:40:43.349Z,95917.27
2022-08-30T19:43:33.667Z,95929.08
2022-08-30T19:49:14.152Z,95953.87
2022-08-30T19:55:03.389Z,95953.70
2022-08-30T20:00:39.168Z,95958.05
2022-08-30T20:06:16.124Z,95967.45
2022-08-30T20:11:45.211Z,95971.59
2022-08-30T20:18:02.074Z,95979.42
2022-08-30T20:26:16.761Z,95986.45
2022-08-30T20:31:58.591Z,95987.20
2022-08-30T20:34:50.172Z,95984.05
2022-08-30T20:43:28.954Z,95975.05
2022-08-30T20:46:22.232Z,95982.89
2022-08-30T20:52:12.304Z,95979.51
2022-08-30T20:55:02.695Z,95976.67
2022-08-30T21:00:59.854Z,95967.45
2022-08-30T21:03:51.343Z,95969.94
2022-08-30T21:09:34.093Z,95960.94
2022-08-30T21:15:34.113Z,95964.83
2022-08-30T21:18:04.677Z,95963.63
2022-08-30T21:20:52.479Z,95953.98
2022-08-30T21:26:51.980Z,95931.94
2022-08-30T21:35:34.342Z,95939.58
2022-08-30T21:38:23.509Z,95941.13
2022-08-30T21:44:02.171Z,95934.19
2022-08-30T21:46:52.468Z,95933.26
2022-08-30T21:49:40.905Z,95935.37
2022-08-30T21:52:29.823Z,95927.81
2022-08-30T21:57:57.362Z,95931.13
2022-08-30T22:03:28.015Z,95926.91
2022-08-30T22:09:07.839Z,95926.78
2022-08-30T22:14:39.994Z,95924.24
2022-08-30T22:20:19.277Z,95920.27
2022-08-30T22:25:53.780Z,95914.92
2022-08-30T22:31:29.132Z,95920.21
2022-08-30T22:37:07.040Z,95924.34
2022-08-30T22:42:35.276Z,95912.74
2022-08-30T22:45:27.396Z,95913.49
2022-08-30T22:51:08.311Z,95916.42
2022-08-30T22:53:57.551Z,95922.87
2022-08-30T22:56:46.602Z,95925.98
2022-08-30T23:02:20.544Z,95905.62
2022-08-30T23:05:09.727Z,95915.59
2022-08-30T23:10:45.825Z,95901.25
2022-08-30T23:16:14.790Z,95901.92
2022-08-30T23:21:52.516Z,95899.06
2022-08-30T23:24:58.431Z,95910.81
2022-08-30T23:30:54.617Z,95905.20
2022-08-30T23:36:46.978Z,95906.73
2022-08-30T23:39:53.146Z,95910.05
2022-08-30T23:45:45.956Z,95906.96
2022-08-30T23:48:52.261Z,95921.64
2022-08-30T23:51:58.009Z,95910.97
2022-08-30T23:57:48.570Z,95907.66
